Airfield :
LOGIN :

Register | Disclaimer

   EN    FR    IT 

 










Legend :    VFR   Marginal VFR   IFR   Intensive IFR   Very Intensive IFR
Visi :
Ceiling :
>= 8 km
>= 3000ft
5 to 8 km
1000 to 3000 ft
1500m to 5 km
500 to 1000 ft
800 to 1500m
200 to 500 ft
< 800m
< 200 ft
Symbols :   Thunderstorms  Fog  Heavy snow  Heavy precipitations  Wind > 20 kt
SIGMETs :     Misc.  Thunderstorms  Icing  Turbulence  Mountain Waves  Volcanic Ashes






- Airport Elevation : 36 ft
- IATA code : LTQ


LFAT - Le Touquet

CURRENT METAR :
  • 191430Z AUTO 09006KT 9999 -RA FEW033 SCT054 BKN110 24/17 Q1014 NOSIG

EXPIRED METARs :
  • 191400Z AUTO 12006KT 9999 -RA FEW028 SCT034 OVC120 24/17 Q1014 NOSIG
  • 191330Z AUTO 10006KT 9999 FEW035 OVC120 24/16 Q1014 NOSIG
  • 191300Z AUTO 13008KT 9999 FEW044 SCT130 BKN160 24/16 Q1014 NOSIG
  • 191230Z AUTO 12008KT CAVOK 24/16 Q1014 NOSIG
  • 191200Z AUTO 12010KT CAVOK 24/15 Q1014 NOSIG

TAF TAF LFAT
Valid from the 19 at 15:00 until the 20 at 00:00 UTC


191400Z 1915/1924 12010KT CAVOK
BECMG 1918/1920 05010KT
ATIS : +33 3 21 06 62 84



MET'MAP, your aeronautical weather chart ! - Copyright ORBIFLY December 2007 - Disclaimer

ORBIFLY MET'MAP TEAM :

Programming & Development : Alexandra Zaïnal
Concept & original design : Baudouin d'Aumeries
Assistance for programming : Marc-Olivier Méhu
Technical & hardware support : Manuel Goepfert

Contact : metmap@orbifly.com




SOURCES & CREDITS :

   NOAA